sensor_id;sensor_type;location;lat;lon;timestamp;P1;durP1;ratioP1;P2;durP2;ratioP2
10232;SDS011;5161;48.174;11.756;2023-07-28T00:01:24;5.90;;;4.30;;
10232;SDS011;5161;48.174;11.756;2023-07-28T00:03:50;4.83;;;4.43;;
10232;SDS011;5161;48.174;11.756;2023-07-28T00:06:16;5.23;;;4.47;;
10232;SDS011;5161;48.174;11.756;2023-07-28T00:08:41;4.77;;;4.37;;
10232;SDS011;5161;48.174;11.756;2023-07-28T00:11:11;4.80;;;4.37;;
10232;SDS011;5161;48.174;11.756;2023-07-28T00:13:40;5.83;;;4.63;;
10232;SDS011;5161;48.174;11.756;2023-07-28T00:16:06;6.10;;;4.90;;
10232;SDS011;5161;48.174;11.756;2023-07-28T00:18:33;4.70;;;4.33;;
10232;SDS011;5161;48.174;11.756;2023-07-28T00:20:59;5.27;;;4.77;;
10232;SDS011;5161;48.174;11.756;2023-07-28T00:23:25;4.80;;;4.40;;
10232;SDS011;5161;48.174;11.756;2023-07-28T00:25:51;6.03;;;4.73;;
10232;SDS011;5161;48.174;11.756;2023-07-28T00:28:16;4.60;;;4.20;;
10232;SDS011;5161;48.174;11.756;2023-07-28T00:30:42;5.37;;;4.47;;
10232;SDS011;5161;48.174;11.756;2023-07-28T00:33:07;4.90;;;4.50;;
10232;SDS011;5161;48.174;11.756;2023-07-28T00:35:33;4.77;;;4.30;;
10232;SDS011;5161;48.174;11.756;2023-07-28T00:37:58;4.80;;;4.40;;
10232;SDS011;5161;48.174;11.756;2023-07-28T00:40:24;4.63;;;4.23;;
10232;SDS011;5161;48.174;11.756;2023-07-28T00:42:50;4.80;;;4.40;;
10232;SDS011;5161;48.174;11.756;2023-07-28T00:45:16;4.23;;;3.93;;
10232;SDS011;5161;48.174;11.756;2023-07-28T00:47:41;4.77;;;4.40;;
10232;SDS011;5161;48.174;11.756;2023-07-28T00:50:10;4.73;;;4.33;;
10232;SDS011;5161;48.174;11.756;2023-07-28T00:52:37;4.67;;;4.33;;
10232;SDS011;5161;48.174;11.756;2023-07-28T00:55:03;5.27;;;4.53;;
10232;SDS011;5161;48.174;11.756;2023-07-28T00:57:31;4.60;;;4.27;;
10232;SDS011;5161;48.174;11.756;2023-07-28T00:59:56;4.60;;;4.20;;
10232;SDS011;5161;48.174;11.756;2023-07-28T01:02:22;4.63;;;4.33;;
10232;SDS011;5161;48.174;11.756;2023-07-28T01:04:48;4.50;;;4.10;;
10232;SDS011;5161;48.174;11.756;2023-07-28T01:07:26;4.10;;;3.80;;
10232;SDS011;5161;48.174;11.756;2023-07-28T01:10:02;4.33;;;3.90;;
10232;SDS011;5161;48.174;11.756;2023-07-28T01:12:31;4.10;;;3.80;;
10232;SDS011;5161;48.174;11.756;2023-07-28T01:14:57;4.20;;;3.77;;
10232;SDS011;5161;48.174;11.756;2023-07-28T01:17:22;5.37;;;3.90;;
10232;SDS011;5161;48.174;11.756;2023-07-28T01:19:51;4.00;;;3.70;;
10232;SDS011;5161;48.174;11.756;2023-07-28T01:22:31;4.50;;;3.80;;
10232;SDS011;5161;48.174;11.756;2023-07-28T01:27:44;4.27;;;3.97;;
10232;SDS011;5161;48.174;11.756;2023-07-28T01:30:10;4.50;;;3.80;;
10232;SDS011;5161;48.174;11.756;2023-07-28T01:32:36;4.27;;;3.87;;
10232;SDS011;5161;48.174;11.756;2023-07-28T01:35:02;4.30;;;3.90;;
10232;SDS011;5161;48.174;11.756;2023-07-28T01:37:28;4.07;;;3.77;;
10232;SDS011;5161;48.174;11.756;2023-07-28T01:39:54;4.13;;;3.83;;
10232;SDS011;5161;48.174;11.756;2023-07-28T01:42:20;3.93;;;3.63;;
10232;SDS011;5161;48.174;11.756;2023-07-28T01:44:45;4.00;;;3.70;;
10232;SDS011;5161;48.174;11.756;2023-07-28T01:47:11;3.93;;;3.70;;
10232;SDS011;5161;48.174;11.756;2023-07-28T01:49:36;4.17;;;3.77;;
10232;SDS011;5161;48.174;11.756;2023-07-28T01:52:02;4.00;;;3.70;;
10232;SDS011;5161;48.174;11.756;2023-07-28T01:54:28;3.80;;;3.50;;
10232;SDS011;5161;48.174;11.756;2023-07-28T01:56:53;4.63;;;3.77;;
10232;SDS011;5161;48.174;11.756;2023-07-28T01:59:19;4.27;;;3.83;;
10232;SDS011;5161;48.174;11.756;2023-07-28T02:01:45;4.30;;;3.90;;
10232;SDS011;5161;48.174;11.756;2023-07-28T02:04:11;3.93;;;3.63;;
10232;SDS011;5161;48.174;11.756;2023-07-28T02:06:37;3.77;;;3.47;;
10232;SDS011;5161;48.174;11.756;2023-07-28T02:09:03;4.00;;;3.70;;
10232;SDS011;5161;48.174;11.756;2023-07-28T02:11:28;3.73;;;3.33;;
10232;SDS011;5161;48.174;11.756;2023-07-28T02:13:54;5.53;;;3.60;;
10232;SDS011;5161;48.174;11.756;2023-07-28T02:16:20;4.00;;;3.70;;
10232;SDS011;5161;48.174;11.756;2023-07-28T02:18:45;5.23;;;3.83;;
10232;SDS011;5161;48.174;11.756;2023-07-28T02:21:11;4.37;;;3.97;;
10232;SDS011;5161;48.174;11.756;2023-07-28T02:23:36;4.13;;;3.77;;
10232;SDS011;5161;48.174;11.756;2023-07-28T02:26:02;4.33;;;3.93;;
10232;SDS011;5161;48.174;11.756;2023-07-28T02:28:27;3.80;;;3.50;;
10232;SDS011;5161;48.174;11.756;2023-07-28T02:30:53;3.97;;;3.67;;
10232;SDS011;5161;48.174;11.756;2023-07-28T02:33:18;5.10;;;3.80;;
10232;SDS011;5161;48.174;11.756;2023-07-28T02:35:44;4.10;;;3.70;;
10232;SDS011;5161;48.174;11.756;2023-07-28T02:38:10;3.80;;;3.50;;
10232;SDS011;5161;48.174;11.756;2023-07-28T02:40:35;4.17;;;3.80;;
10232;SDS011;5161;48.174;11.756;2023-07-28T02:43:01;4.00;;;3.60;;
10232;SDS011;5161;48.174;11.756;2023-07-28T02:45:26;4.50;;;3.53;;
10232;SDS011;5161;48.174;11.756;2023-07-28T02:47:52;3.60;;;3.40;;
10232;SDS011;5161;48.174;11.756;2023-07-28T02:50:17;3.90;;;3.40;;
10232;SDS011;5161;48.174;11.756;2023-07-28T02:52:43;3.67;;;3.37;;
10232;SDS011;5161;48.174;11.756;2023-07-28T02:55:09;4.13;;;3.73;;
10232;SDS011;5161;48.174;11.756;2023-07-28T02:57:34;3.80;;;3.50;;
10232;SDS011;5161;48.174;11.756;2023-07-28T03:00:00;3.90;;;3.60;;
10232;SDS011;5161;48.174;11.756;2023-07-28T03:02:25;4.60;;;3.40;;
10232;SDS011;5161;48.174;11.756;2023-07-28T03:04:51;3.70;;;3.40;;
10232;SDS011;5161;48.174;11.756;2023-07-28T03:07:16;3.67;;;3.37;;
10232;SDS011;5161;48.174;11.756;2023-07-28T03:09:42;3.60;;;3.30;;
10232;SDS011;5161;48.174;11.756;2023-07-28T03:12:08;3.73;;;3.13;;
10232;SDS011;5161;48.174;11.756;2023-07-28T03:14:33;6.07;;;3.40;;
10232;SDS011;5161;48.174;11.756;2023-07-28T03:16:59;3.40;;;3.20;;
10232;SDS011;5161;48.174;11.756;2023-07-28T03:19:25;3.43;;;3.13;;
10232;SDS011;5161;48.174;11.756;2023-07-28T03:21:50;3.63;;;3.33;;
10232;SDS011;5161;48.174;11.756;2023-07-28T03:24:16;3.70;;;3.30;;
10232;SDS011;5161;48.174;11.756;2023-07-28T03:26:41;3.60;;;3.30;;
10232;SDS011;5161;48.174;11.756;2023-07-28T03:29:07;3.90;;;3.50;;
10232;SDS011;5161;48.174;11.756;2023-07-28T03:31:32;3.53;;;3.20;;
10232;SDS011;5161;48.174;11.756;2023-07-28T03:34:00;4.30;;;3.50;;
10232;SDS011;5161;48.174;11.756;2023-07-28T03:36:28;3.47;;;3.17;;
10232;SDS011;5161;48.174;11.756;2023-07-28T03:38:53;3.37;;;3.17;;
10232;SDS011;5161;48.174;11.756;2023-07-28T03:41:19;3.83;;;3.40;;
10232;SDS011;5161;48.174;11.756;2023-07-28T03:43:45;3.40;;;3.20;;
10232;SDS011;5161;48.174;11.756;2023-07-28T03:46:10;4.00;;;3.57;;
10232;SDS011;5161;48.174;11.756;2023-07-28T03:48:36;3.90;;;3.60;;
10232;SDS011;5161;48.174;11.756;2023-07-28T03:51:02;3.57;;;3.27;;
10232;SDS011;5161;48.174;11.756;2023-07-28T03:53:27;3.37;;;3.10;;
10232;SDS011;5161;48.174;11.756;2023-07-28T03:55:53;3.63;;;3.40;;
10232;SDS011;5161;48.174;11.756;2023-07-28T03:58:22;5.50;;;3.40;;
10232;SDS011;5161;48.174;11.756;2023-07-28T04:00:52;3.87;;;3.13;;
10232;SDS011;5161;48.174;11.756;2023-07-28T04:03:18;3.43;;;3.17;;
10232;SDS011;5161;48.174;11.756;2023-07-28T04:05:44;3.37;;;3.10;;
10232;SDS011;5161;48.174;11.756;2023-07-28T04:08:09;3.50;;;3.30;;
10232;SDS011;5161;48.174;11.756;2023-07-28T04:10:35;5.50;;;3.27;;
10232;SDS011;5161;48.174;11.756;2023-07-28T04:13:00;3.33;;;3.13;;
10232;SDS011;5161;48.174;11.756;2023-07-28T04:15:26;5.20;;;3.53;;
10232;SDS011;5161;48.174;11.756;2023-07-28T04:17:51;3.90;;;3.50;;
10232;SDS011;5161;48.174;11.756;2023-07-28T04:20:17;3.43;;;3.23;;
10232;SDS011;5161;48.174;11.756;2023-07-28T04:22:42;4.00;;;3.27;;
10232;SDS011;5161;48.174;11.756;2023-07-28T04:25:08;4.10;;;3.27;;
10232;SDS011;5161;48.174;11.756;2023-07-28T04:27:34;4.00;;;3.60;;
10232;SDS011;5161;48.174;11.756;2023-07-28T04:29:59;4.07;;;3.40;;
10232;SDS011;5161;48.174;11.756;2023-07-28T04:32:25;3.80;;;3.43;;
10232;SDS011;5161;48.174;11.756;2023-07-28T04:34:51;3.90;;;3.43;;
10232;SDS011;5161;48.174;11.756;2023-07-28T04:37:17;3.30;;;3.10;;
10232;SDS011;5161;48.174;11.756;2023-07-28T04:39:42;3.70;;;3.50;;
10232;SDS011;5161;48.174;11.756;2023-07-28T04:42:08;3.67;;;3.37;;
10232;SDS011;5161;48.174;11.756;2023-07-28T04:44:34;3.50;;;3.20;;
10232;SDS011;5161;48.174;11.756;2023-07-28T04:47:01;4.03;;;3.17;;
10232;SDS011;5161;48.174;11.756;2023-07-28T04:49:26;3.77;;;3.47;;
10232;SDS011;5161;48.174;11.756;2023-07-28T04:51:52;3.97;;;3.30;;
10232;SDS011;5161;48.174;11.756;2023-07-28T04:54:17;3.87;;;3.40;;
10232;SDS011;5161;48.174;11.756;2023-07-28T04:56:43;3.70;;;3.40;;
10232;SDS011;5161;48.174;11.756;2023-07-28T04:59:08;3.80;;;3.37;;
10232;SDS011;5161;48.174;11.756;2023-07-28T05:01:34;9.20;;;3.97;;
10232;SDS011;5161;48.174;11.756;2023-07-28T05:04:00;3.73;;;3.43;;
10232;SDS011;5161;48.174;11.756;2023-07-28T05:06:25;4.80;;;3.70;;
10232;SDS011;5161;48.174;11.756;2023-07-28T05:08:51;4.43;;;3.53;;
10232;SDS011;5161;48.174;11.756;2023-07-28T05:11:16;4.37;;;3.50;;
10232;SDS011;5161;48.174;11.756;2023-07-28T05:13:42;6.13;;;3.43;;
10232;SDS011;5161;48.174;11.756;2023-07-28T05:16:07;6.43;;;3.57;;
10232;SDS011;5161;48.174;11.756;2023-07-28T05:18:33;6.07;;;3.40;;
10232;SDS011;5161;48.174;11.756;2023-07-28T05:20:59;8.20;;;3.50;;
10232;SDS011;5161;48.174;11.756;2023-07-28T05:23:24;4.00;;;3.50;;
10232;SDS011;5161;48.174;11.756;2023-07-28T05:25:50;4.20;;;3.43;;
10232;SDS011;5161;48.174;11.756;2023-07-28T05:28:15;9.23;;;3.40;;
10232;SDS011;5161;48.174;11.756;2023-07-28T05:30:41;4.13;;;3.60;;
10232;SDS011;5161;48.174;11.756;2023-07-28T05:33:06;6.90;;;3.70;;
10232;SDS011;5161;48.174;11.756;2023-07-28T05:35:32;8.90;;;3.80;;
10232;SDS011;5161;48.174;11.756;2023-07-28T05:37:57;6.13;;;3.50;;
10232;SDS011;5161;48.174;11.756;2023-07-28T05:40:23;3.90;;;3.60;;
10232;SDS011;5161;48.174;11.756;2023-07-28T05:42:48;3.57;;;3.30;;
10232;SDS011;5161;48.174;11.756;2023-07-28T05:45:14;5.87;;;3.67;;
10232;SDS011;5161;48.174;11.756;2023-07-28T05:47:40;6.50;;;3.93;;
10232;SDS011;5161;48.174;11.756;2023-07-28T05:50:05;4.67;;;3.33;;
10232;SDS011;5161;48.174;11.756;2023-07-28T05:52:31;6.33;;;3.70;;
10232;SDS011;5161;48.174;11.756;2023-07-28T05:54:57;5.30;;;3.60;;
10232;SDS011;5161;48.174;11.756;2023-07-28T05:57:22;4.50;;;3.43;;
10232;SDS011;5161;48.174;11.756;2023-07-28T05:59:48;7.90;;;3.90;;
10232;SDS011;5161;48.174;11.756;2023-07-28T06:02:14;6.73;;;3.90;;
10232;SDS011;5161;48.174;11.756;2023-07-28T06:04:39;6.50;;;3.80;;
10232;SDS011;5161;48.174;11.756;2023-07-28T06:07:05;5.73;;;3.60;;
10232;SDS011;5161;48.174;11.756;2023-07-28T06:09:30;5.40;;;4.00;;
10232;SDS011;5161;48.174;11.756;2023-07-28T06:11:56;3.90;;;3.50;;
10232;SDS011;5161;48.174;11.756;2023-07-28T06:14:22;4.77;;;3.63;;
10232;SDS011;5161;48.174;11.756;2023-07-28T06:16:47;12.17;;;3.97;;
10232;SDS011;5161;48.174;11.756;2023-07-28T06:19:13;4.33;;;3.93;;
10232;SDS011;5161;48.174;11.756;2023-07-28T06:21:38;4.53;;;3.70;;
10232;SDS011;5161;48.174;11.756;2023-07-28T06:24:04;4.57;;;3.63;;
10232;SDS011;5161;48.174;11.756;2023-07-28T06:26:30;4.00;;;3.60;;
10232;SDS011;5161;48.174;11.756;2023-07-28T06:28:56;4.40;;;3.80;;
10232;SDS011;5161;48.174;11.756;2023-07-28T06:31:22;4.47;;;3.70;;
10232;SDS011;5161;48.174;11.756;2023-07-28T06:33:47;4.40;;;4.00;;
10232;SDS011;5161;48.174;11.756;2023-07-28T06:36:13;4.20;;;3.70;;
10232;SDS011;5161;48.174;11.756;2023-07-28T06:38:38;3.80;;;3.40;;
10232;SDS011;5161;48.174;11.756;2023-07-28T06:41:04;5.53;;;3.70;;
10232;SDS011;5161;48.174;11.756;2023-07-28T06:43:30;5.63;;;3.80;;
10232;SDS011;5161;48.174;11.756;2023-07-28T06:45:55;5.20;;;3.80;;
10232;SDS011;5161;48.174;11.756;2023-07-28T06:48:21;10.23;;;4.10;;
10232;SDS011;5161;48.174;11.756;2023-07-28T06:50:46;4.40;;;4.00;;
10232;SDS011;5161;48.174;11.756;2023-07-28T06:53:12;3.87;;;3.47;;
10232;SDS011;5161;48.174;11.756;2023-07-28T06:55:38;3.90;;;3.57;;
10232;SDS011;5161;48.174;11.756;2023-07-28T06:58:04;4.17;;;3.83;;
10232;SDS011;5161;48.174;11.756;2023-07-28T07:00:30;5.53;;;3.63;;
10232;SDS011;5161;48.174;11.756;2023-07-28T07:02:56;8.73;;;3.87;;
10232;SDS011;5161;48.174;11.756;2023-07-28T07:05:21;5.07;;;4.00;;
10232;SDS011;5161;48.174;11.756;2023-07-28T07:07:48;4.13;;;3.83;;
10232;SDS011;5161;48.174;11.756;2023-07-28T07:10:14;3.77;;;3.50;;
10232;SDS011;5161;48.174;11.756;2023-07-28T07:12:39;3.80;;;3.50;;
10232;SDS011;5161;48.174;11.756;2023-07-28T07:15:05;4.07;;;3.50;;
10232;SDS011;5161;48.174;11.756;2023-07-28T07:17:32;4.17;;;3.80;;
10232;SDS011;5161;48.174;11.756;2023-07-28T07:19:58;3.90;;;3.60;;
10232;SDS011;5161;48.174;11.756;2023-07-28T07:22:24;4.40;;;3.60;;
10232;SDS011;5161;48.174;11.756;2023-07-28T07:24:49;4.00;;;3.70;;
10232;SDS011;5161;48.174;11.756;2023-07-28T07:27:15;3.80;;;3.50;;
10232;SDS011;5161;48.174;11.756;2023-07-28T07:29:41;3.83;;;3.53;;
10232;SDS011;5161;48.174;11.756;2023-07-28T07:32:07;3.70;;;3.40;;
10232;SDS011;5161;48.174;11.756;2023-07-28T07:34:34;3.90;;;3.60;;
10232;SDS011;5161;48.174;11.756;2023-07-28T07:37:02;6.13;;;3.60;;
10232;SDS011;5161;48.174;11.756;2023-07-28T07:39:30;4.70;;;3.50;;
10232;SDS011;5161;48.174;11.756;2023-07-28T07:41:56;4.20;;;3.80;;
10232;SDS011;5161;48.174;11.756;2023-07-28T07:44:22;4.27;;;3.67;;
10232;SDS011;5161;48.174;11.756;2023-07-28T07:46:48;5.37;;;3.93;;
10232;SDS011;5161;48.174;11.756;2023-07-28T07:49:14;4.17;;;3.70;;
10232;SDS011;5161;48.174;11.756;2023-07-28T07:51:40;3.67;;;3.37;;
10232;SDS011;5161;48.174;11.756;2023-07-28T07:54:05;4.17;;;3.70;;
10232;SDS011;5161;48.174;11.756;2023-07-28T07:56:31;3.93;;;3.63;;
10232;SDS011;5161;48.174;11.756;2023-07-28T07:58:57;6.30;;;4.00;;
10232;SDS011;5161;48.174;11.756;2023-07-28T08:01:25;4.20;;;3.90;;
10232;SDS011;5161;48.174;11.756;2023-07-28T08:03:50;4.00;;;3.60;;
10232;SDS011;5161;48.174;11.756;2023-07-28T08:06:16;3.77;;;3.47;;
10232;SDS011;5161;48.174;11.756;2023-07-28T08:08:42;6.33;;;3.77;;
10232;SDS011;5161;48.174;11.756;2023-07-28T08:11:07;3.93;;;3.63;;
10232;SDS011;5161;48.174;11.756;2023-07-28T08:13:33;4.10;;;3.67;;
10232;SDS011;5161;48.174;11.756;2023-07-28T08:15:59;3.70;;;3.50;;
10232;SDS011;5161;48.174;11.756;2023-07-28T08:18:24;4.10;;;3.80;;
10232;SDS011;5161;48.174;11.756;2023-07-28T08:20:50;5.67;;;3.60;;
10232;SDS011;5161;48.174;11.756;2023-07-28T08:23:15;4.40;;;3.70;;
10232;SDS011;5161;48.174;11.756;2023-07-28T08:25:41;4.57;;;3.60;;
10232;SDS011;5161;48.174;11.756;2023-07-28T08:28:07;4.00;;;3.63;;
10232;SDS011;5161;48.174;11.756;2023-07-28T08:30:37;3.67;;;3.47;;
10232;SDS011;5161;48.174;11.756;2023-07-28T08:33:03;3.90;;;3.60;;
10232;SDS011;5161;48.174;11.756;2023-07-28T08:35:28;3.90;;;3.60;;
10232;SDS011;5161;48.174;11.756;2023-07-28T08:37:54;3.80;;;3.47;;
10232;SDS011;5161;48.174;11.756;2023-07-28T08:40:20;3.73;;;3.43;;
10232;SDS011;5161;48.174;11.756;2023-07-28T08:42:45;5.90;;;3.70;;
10232;SDS011;5161;48.174;11.756;2023-07-28T08:45:11;3.53;;;3.23;;
10232;SDS011;5161;48.174;11.756;2023-07-28T08:47:38;4.03;;;3.23;;
10232;SDS011;5161;48.174;11.756;2023-07-28T08:50:04;4.07;;;3.10;;
10232;SDS011;5161;48.174;11.756;2023-07-28T08:52:32;3.73;;;3.53;;
10232;SDS011;5161;48.174;11.756;2023-07-28T08:55:00;3.47;;;3.17;;
10232;SDS011;5161;48.174;11.756;2023-07-28T08:57:25;3.67;;;3.37;;
10232;SDS011;5161;48.174;11.756;2023-07-28T08:59:52;6.07;;;3.37;;
10232;SDS011;5161;48.174;11.756;2023-07-28T09:02:18;3.77;;;3.47;;
10232;SDS011;5161;48.174;11.756;2023-07-28T09:04:45;3.80;;;3.50;;
10232;SDS011;5161;48.174;11.756;2023-07-28T09:07:15;5.63;;;3.63;;
10232;SDS011;5161;48.174;11.756;2023-07-28T09:09:44;4.67;;;3.53;;
10232;SDS011;5161;48.174;11.756;2023-07-28T09:12:12;4.03;;;3.47;;
10232;SDS011;5161;48.174;11.756;2023-07-28T09:14:47;4.27;;;3.30;;
10232;SDS011;5161;48.174;11.756;2023-07-28T09:17:12;5.13;;;3.20;;
10232;SDS011;5161;48.174;11.756;2023-07-28T09:19:54;3.90;;;3.33;;
10232;SDS011;5161;48.174;11.756;2023-07-28T09:22:21;5.93;;;3.43;;
10232;SDS011;5161;48.174;11.756;2023-07-28T09:24:50;3.57;;;3.27;;
10232;SDS011;5161;48.174;11.756;2023-07-28T09:27:25;6.20;;;3.63;;
10232;SDS011;5161;48.174;11.756;2023-07-28T09:29:54;3.97;;;3.50;;
10232;SDS011;5161;48.174;11.756;2023-07-28T09:32:28;3.70;;;3.50;;
10232;SDS011;5161;48.174;11.756;2023-07-28T09:35:11;3.50;;;3.30;;
10232;SDS011;5161;48.174;11.756;2023-07-28T09:37:41;4.17;;;3.37;;
10232;SDS011;5161;48.174;11.756;2023-07-28T09:40:11;3.93;;;3.50;;
10232;SDS011;5161;48.174;11.756;2023-07-28T09:42:42;5.10;;;3.53;;
10232;SDS011;5161;48.174;11.756;2023-07-28T09:45:10;3.80;;;3.50;;
10232;SDS011;5161;48.174;11.756;2023-07-28T09:47:37;3.80;;;3.60;;
10232;SDS011;5161;48.174;11.756;2023-07-28T09:50:04;4.27;;;3.50;;
10232;SDS011;5161;48.174;11.756;2023-07-28T09:52:34;3.40;;;3.17;;
10232;SDS011;5161;48.174;11.756;2023-07-28T09:55:07;3.70;;;3.40;;
10232;SDS011;5161;48.174;11.756;2023-07-28T09:57:54;5.27;;;3.60;;
10232;SDS011;5161;48.174;11.756;2023-07-28T10:00:22;5.63;;;3.47;;
10232;SDS011;5161;48.174;11.756;2023-07-28T10:02:48;5.23;;;3.90;;
10232;SDS011;5161;48.174;11.756;2023-07-28T10:05:20;3.67;;;3.37;;
10232;SDS011;5161;48.174;11.756;2023-07-28T10:07:52;3.90;;;3.53;;
10232;SDS011;5161;48.174;11.756;2023-07-28T10:10:20;3.50;;;3.30;;
10232;SDS011;5161;48.174;11.756;2023-07-28T10:12:47;4.17;;;3.77;;
10232;SDS011;5161;48.174;11.756;2023-07-28T10:15:17;3.90;;;3.30;;
10232;SDS011;5161;48.174;11.756;2023-07-28T10:20:31;4.10;;;3.70;;
10232;SDS011;5161;48.174;11.756;2023-07-28T10:23:06;4.13;;;3.70;;
10232;SDS011;5161;48.174;11.756;2023-07-28T10:26:00;4.07;;;3.77;;
10232;SDS011;5161;48.174;11.756;2023-07-28T10:28:28;3.90;;;3.70;;
10232;SDS011;5161;48.174;11.756;2023-07-28T10:30:56;5.07;;;3.70;;
10232;SDS011;5161;48.174;11.756;2023-07-28T10:33:33;3.93;;;3.63;;
10232;SDS011;5161;48.174;11.756;2023-07-28T10:36:14;4.13;;;3.80;;
10232;SDS011;5161;48.174;11.756;2023-07-28T10:42:01;3.67;;;3.40;;
10232;SDS011;5161;48.174;11.756;2023-07-28T10:44:27;3.80;;;3.50;;
10232;SDS011;5161;48.174;11.756;2023-07-28T10:46:53;3.40;;;3.20;;
10232;SDS011;5161;48.174;11.756;2023-07-28T10:49:19;4.20;;;3.87;;
10232;SDS011;5161;48.174;11.756;2023-07-28T10:51:45;3.70;;;3.50;;
10232;SDS011;5161;48.174;11.756;2023-07-28T10:54:11;3.60;;;3.40;;
10232;SDS011;5161;48.174;11.756;2023-07-28T10:56:40;3.57;;;3.37;;
10232;SDS011;5161;48.174;11.756;2023-07-28T10:59:06;3.63;;;3.33;;
10232;SDS011;5161;48.174;11.756;2023-07-28T11:01:32;3.73;;;3.53;;
10232;SDS011;5161;48.174;11.756;2023-07-28T11:04:07;6.83;;;3.80;;
10232;SDS011;5161;48.174;11.756;2023-07-28T11:06:40;4.60;;;3.53;;
10232;SDS011;5161;48.174;11.756;2023-07-28T11:09:10;4.10;;;3.70;;
10232;SDS011;5161;48.174;11.756;2023-07-28T11:11:37;5.10;;;4.00;;
10232;SDS011;5161;48.174;11.756;2023-07-28T11:14:04;4.20;;;3.80;;
10232;SDS011;5161;48.174;11.756;2023-07-28T11:16:33;4.40;;;4.00;;
10232;SDS011;5161;48.174;11.756;2023-07-28T11:19:03;3.87;;;3.57;;
10232;SDS011;5161;48.174;11.756;2023-07-28T11:21:38;4.37;;;3.97;;
10232;SDS011;5161;48.174;11.756;2023-07-28T11:24:10;5.40;;;3.80;;
10232;SDS011;5161;48.174;11.756;2023-07-28T11:26:36;4.87;;;3.97;;
10232;SDS011;5161;48.174;11.756;2023-07-28T11:29:03;4.90;;;3.67;;
10232;SDS011;5161;48.174;11.756;2023-07-28T11:31:33;4.73;;;3.80;;
10232;SDS011;5161;48.174;11.756;2023-07-28T11:34:01;4.50;;;4.10;;
10232;SDS011;5161;48.174;11.756;2023-07-28T11:36:28;3.73;;;3.43;;
10232;SDS011;5161;48.174;11.756;2023-07-28T11:38:55;4.03;;;3.67;;
10232;SDS011;5161;48.174;11.756;2023-07-28T11:41:23;4.87;;;3.80;;
10232;SDS011;5161;48.174;11.756;2023-07-28T11:43:50;3.73;;;3.43;;
10232;SDS011;5161;48.174;11.756;2023-07-28T11:46:35;4.23;;;3.83;;
10232;SDS011;5161;48.174;11.756;2023-07-28T11:51:50;4.20;;;3.80;;
10232;SDS011;5161;48.174;11.756;2023-07-28T11:54:18;4.93;;;3.60;;
10232;SDS011;5161;48.174;11.756;2023-07-28T11:56:47;4.50;;;3.53;;
10232;SDS011;5161;48.174;11.756;2023-07-28T11:59:19;3.70;;;3.40;;
10232;SDS011;5161;48.174;11.756;2023-07-28T12:04:22;5.20;;;3.50;;
10232;SDS011;5161;48.174;11.756;2023-07-28T12:07:01;3.50;;;3.13;;
10232;SDS011;5161;48.174;11.756;2023-07-28T12:09:52;3.67;;;3.37;;
10232;SDS011;5161;48.174;11.756;2023-07-28T12:12:21;3.73;;;3.43;;
10232;SDS011;5161;48.174;11.756;2023-07-28T12:14:48;3.80;;;3.57;;
10232;SDS011;5161;48.174;11.756;2023-07-28T12:17:19;4.07;;;3.67;;
10232;SDS011;5161;48.174;11.756;2023-07-28T12:22:25;3.43;;;3.20;;
10232;SDS011;5161;48.174;11.756;2023-07-28T12:24:52;3.07;;;2.93;;
10232;SDS011;5161;48.174;11.756;2023-07-28T12:27:18;4.53;;;3.40;;
10232;SDS011;5161;48.174;11.756;2023-07-28T12:29:45;3.60;;;3.40;;
10232;SDS011;5161;48.174;11.756;2023-07-28T12:32:11;4.13;;;3.73;;
10232;SDS011;5161;48.174;11.756;2023-07-28T12:34:37;4.10;;;3.80;;
10232;SDS011;5161;48.174;11.756;2023-07-28T12:37:02;4.17;;;3.80;;
10232;SDS011;5161;48.174;11.756;2023-07-28T12:39:28;3.87;;;3.60;;
10232;SDS011;5161;48.174;11.756;2023-07-28T12:41:54;3.90;;;3.60;;
10232;SDS011;5161;48.174;11.756;2023-07-28T12:44:20;4.00;;;3.60;;
10232;SDS011;5161;48.174;11.756;2023-07-28T12:46:45;3.80;;;3.50;;
10232;SDS011;5161;48.174;11.756;2023-07-28T12:49:11;4.50;;;3.70;;
10232;SDS011;5161;48.174;11.756;2023-07-28T12:51:37;4.00;;;3.70;;
10232;SDS011;5161;48.174;11.756;2023-07-28T12:54:02;3.97;;;3.67;;
10232;SDS011;5161;48.174;11.756;2023-07-28T12:56:28;3.73;;;3.40;;
10232;SDS011;5161;48.174;11.756;2023-07-28T12:58:54;4.07;;;3.67;;
10232;SDS011;5161;48.174;11.756;2023-07-28T13:01:19;3.60;;;3.30;;
10232;SDS011;5161;48.174;11.756;2023-07-28T13:03:45;3.70;;;3.40;;
10232;SDS011;5161;48.174;11.756;2023-07-28T13:06:11;4.30;;;3.80;;
10232;SDS011;5161;48.174;11.756;2023-07-28T13:08:36;3.50;;;3.30;;
10232;SDS011;5161;48.174;11.756;2023-07-28T13:11:02;3.70;;;3.40;;
10232;SDS011;5161;48.174;11.756;2023-07-28T13:13:33;3.70;;;3.50;;
10232;SDS011;5161;48.174;11.756;2023-07-28T13:16:01;4.33;;;3.77;;
10232;SDS011;5161;48.174;11.756;2023-07-28T13:18:29;5.00;;;3.83;;
10232;SDS011;5161;48.174;11.756;2023-07-28T13:21:00;4.70;;;3.97;;
10232;SDS011;5161;48.174;11.756;2023-07-28T13:23:26;3.87;;;3.50;;
10232;SDS011;5161;48.174;11.756;2023-07-28T13:25:51;3.70;;;3.43;;
10232;SDS011;5161;48.174;11.756;2023-07-28T13:28:17;4.67;;;3.87;;
10232;SDS011;5161;48.174;11.756;2023-07-28T13:30:43;4.20;;;3.90;;
10232;SDS011;5161;48.174;11.756;2023-07-28T13:33:09;4.73;;;3.60;;
10232;SDS011;5161;48.174;11.756;2023-07-28T13:35:44;4.33;;;4.03;;
10232;SDS011;5161;48.174;11.756;2023-07-28T13:38:10;4.30;;;3.90;;
10232;SDS011;5161;48.174;11.756;2023-07-28T13:40:38;3.90;;;3.67;;
10232;SDS011;5161;48.174;11.756;2023-07-28T13:43:04;5.20;;;3.50;;
10232;SDS011;5161;48.174;11.756;2023-07-28T13:45:29;4.00;;;3.70;;
10232;SDS011;5161;48.174;11.756;2023-07-28T13:47:55;4.40;;;3.80;;
10232;SDS011;5161;48.174;11.756;2023-07-28T13:50:21;5.10;;;3.70;;
10232;SDS011;5161;48.174;11.756;2023-07-28T13:52:47;4.20;;;3.90;;
10232;SDS011;5161;48.174;11.756;2023-07-28T13:55:13;4.23;;;3.90;;
10232;SDS011;5161;48.174;11.756;2023-07-28T13:57:41;5.07;;;4.00;;
10232;SDS011;5161;48.174;11.756;2023-07-28T14:00:10;4.70;;;4.10;;
10232;SDS011;5161;48.174;11.756;2023-07-28T14:02:41;4.17;;;3.67;;
10232;SDS011;5161;48.174;11.756;2023-07-28T14:05:10;4.23;;;3.83;;
10232;SDS011;5161;48.174;11.756;2023-07-28T14:10:13;3.80;;;3.57;;
10232;SDS011;5161;48.174;11.756;2023-07-28T14:12:39;4.07;;;3.77;;
10232;SDS011;5161;48.174;11.756;2023-07-28T14:15:05;4.33;;;3.93;;
10232;SDS011;5161;48.174;11.756;2023-07-28T14:17:32;3.90;;;3.60;;
10232;SDS011;5161;48.174;11.756;2023-07-28T14:19:58;4.10;;;3.80;;
10232;SDS011;5161;48.174;11.756;2023-07-28T14:22:23;5.13;;;4.27;;
10232;SDS011;5161;48.174;11.756;2023-07-28T14:24:49;6.40;;;3.97;;
10232;SDS011;5161;48.174;11.756;2023-07-28T14:27:15;5.03;;;3.73;;
10232;SDS011;5161;48.174;11.756;2023-07-28T14:29:41;4.63;;;3.60;;
10232;SDS011;5161;48.174;11.756;2023-07-28T14:32:07;4.03;;;3.70;;
10232;SDS011;5161;48.174;11.756;2023-07-28T14:34:33;4.40;;;4.00;;
10232;SDS011;5161;48.174;11.756;2023-07-28T14:37:05;5.27;;;3.70;;
10232;SDS011;5161;48.174;11.756;2023-07-28T14:39:31;3.97;;;3.63;;
10232;SDS011;5161;48.174;11.756;2023-07-28T14:41:57;4.40;;;4.00;;
10232;SDS011;5161;48.174;11.756;2023-07-28T14:44:22;4.70;;;4.30;;
10232;SDS011;5161;48.174;11.756;2023-07-28T14:46:48;3.97;;;3.73;;
10232;SDS011;5161;48.174;11.756;2023-07-28T14:49:13;6.70;;;4.27;;
10232;SDS011;5161;48.174;11.756;2023-07-28T14:51:39;5.67;;;3.87;;
10232;SDS011;5161;48.174;11.756;2023-07-28T14:54:05;4.20;;;3.90;;
10232;SDS011;5161;48.174;11.756;2023-07-28T14:56:30;4.60;;;4.17;;
10232;SDS011;5161;48.174;11.756;2023-07-28T14:58:57;4.70;;;4.37;;
10232;SDS011;5161;48.174;11.756;2023-07-28T15:01:25;4.87;;;4.47;;
10232;SDS011;5161;48.174;11.756;2023-07-28T15:03:51;4.63;;;4.23;;
10232;SDS011;5161;48.174;11.756;2023-07-28T15:06:17;4.70;;;4.30;;